createdAt,value
2022-10-24T00:01:18.901Z,3.20
2022-10-24T00:03:46.367Z,3.38
2022-10-24T00:06:13.924Z,3.20
2022-10-24T00:08:42.699Z,3.13
2022-10-24T00:11:19.358Z,3.38
2022-10-24T00:13:46.354Z,3.10
2022-10-24T00:16:13.637Z,2.88
2022-10-24T00:18:40.972Z,3.22
2022-10-24T00:21:08.658Z,2.63
2022-10-24T00:23:36.179Z,2.60
2022-10-24T00:26:04.435Z,3.03
2022-10-24T00:28:33.115Z,2.70
2022-10-24T00:31:00.530Z,2.70
2022-10-24T00:33:27.980Z,3.10
2022-10-24T00:35:54.911Z,2.65
2022-10-24T00:38:22.017Z,2.88
2022-10-24T00:40:49.000Z,2.83
2022-10-24T00:43:18.125Z,3.28
2022-10-24T00:45:55.217Z,2.20
2022-10-24T00:48:24.344Z,2.63
2022-10-24T00:50:56.905Z,3.40
2022-10-24T00:53:25.652Z,3.10
2022-10-24T00:55:55.774Z,2.60
2022-10-24T00:58:26.033Z,2.20
2022-10-24T01:00:53.052Z,2.58
2022-10-24T01:03:20.127Z,3.33
2022-10-24T01:06:07.792Z,2.97
2022-10-24T01:09:13.359Z,2.60
2022-10-24T01:11:53.548Z,2.60
2022-10-24T01:14:50.877Z,2.60
2022-10-24T01:17:42.100Z,2.22
2022-10-24T01:20:39.468Z,2.08
2022-10-24T01:23:29.044Z,2.17
2022-10-24T01:25:58.974Z,2.17
2022-10-24T01:31:12.975Z,2.30
2022-10-24T01:33:49.105Z,2.97
2022-10-24T01:36:30.273Z,3.40
2022-10-24T01:39:02.560Z,2.42
2022-10-24T01:41:32.104Z,2.53
2022-10-24T01:44:07.560Z,2.30
2022-10-24T01:46:45.449Z,2.97
2022-10-24T01:49:21.167Z,2.33
2022-10-24T01:51:53.522Z,2.63
2022-10-24T01:54:21.357Z,2.40
2022-10-24T01:56:48.298Z,2.47
2022-10-24T01:59:29.786Z,2.58
2022-10-24T02:02:08.990Z,2.83
2022-10-24T02:04:42.962Z,2.50
2022-10-24T02:07:13.284Z,2.50
2022-10-24T02:09:43.501Z,2.90
2022-10-24T02:12:14.362Z,2.38
2022-10-24T02:14:50.032Z,2.35
2022-10-24T02:17:17.840Z,2.40
2022-10-24T02:19:46.174Z,2.88
2022-10-24T02:22:31.124Z,2.90
2022-10-24T02:25:07.694Z,2.22
2022-10-24T02:28:11.586Z,2.60
2022-10-24T02:30:48.727Z,2.70
2022-10-24T02:33:17.488Z,2.78
2022-10-24T02:35:47.089Z,3.13
2022-10-24T02:38:37.280Z,3.40
2022-10-24T02:41:09.235Z,2.50
2022-10-24T02:43:36.909Z,3.30
2022-10-24T02:46:04.870Z,2.90
2022-10-24T02:48:35.270Z,2.75
2022-10-24T02:51:02.954Z,3.03
2022-10-24T02:53:30.459Z,2.90
2022-10-24T02:55:57.736Z,3.10
2022-10-24T02:58:25.056Z,2.70
2022-10-24T03:00:52.337Z,3.50
2022-10-24T03:03:19.710Z,3.05
2022-10-24T03:05:47.008Z,3.08
2022-10-24T03:08:14.350Z,2.92
2022-10-24T03:10:42.807Z,2.80
2022-10-24T03:13:10.093Z,3.50
2022-10-24T03:15:37.514Z,3.22
2022-10-24T03:18:04.922Z,3.17
2022-10-24T03:20:32.329Z,3.08
2022-10-24T03:22:59.637Z,2.85
2022-10-24T03:25:26.947Z,2.72
2022-10-24T03:27:54.204Z,2.90
2022-10-24T03:30:21.489Z,2.83
2022-10-24T03:32:48.755Z,2.80
2022-10-24T03:35:16.731Z,2.70
2022-10-24T03:37:44.117Z,3.17
2022-10-24T03:40:11.953Z,3.30
2022-10-24T03:42:39.466Z,3.75
2022-10-24T03:45:07.165Z,3.92
2022-10-24T03:47:34.551Z,3.25
2022-10-24T03:50:01.841Z,3.97
2022-10-24T03:52:29.085Z,4.50
2022-10-24T03:54:57.424Z,4.00
2022-10-24T03:57:26.021Z,4.00
2022-10-24T03:59:53.311Z,3.83
2022-10-24T04:02:22.085Z,3.45
2022-10-24T04:04:49.405Z,3.13
2022-10-24T04:07:16.715Z,3.47
2022-10-24T04:09:44.469Z,4.70
2022-10-24T04:12:12.199Z,4.30
2022-10-24T04:14:39.523Z,3.78
2022-10-24T04:17:06.708Z,3.65
2022-10-24T04:19:33.968Z,3.65
2022-10-24T04:22:01.436Z,3.30
2022-10-24T04:24:28.734Z,3.80
2022-10-24T04:26:55.658Z,3.28
2022-10-24T04:29:22.546Z,4.15
2022-10-24T04:31:49.511Z,4.32
2022-10-24T04:34:16.495Z,3.65
2022-10-24T04:36:43.770Z,3.95
2022-10-24T04:39:10.840Z,3.60
2022-10-24T04:41:37.877Z,4.22
2022-10-24T04:44:05.174Z,4.03
2022-10-24T04:46:32.346Z,4.40
2022-10-24T04:48:59.908Z,5.18
2022-10-24T04:51:28.088Z,5.43
2022-10-24T04:53:55.261Z,6.15
2022-10-24T04:56:23.408Z,6.93
2022-10-24T04:58:50.883Z,5.40
2022-10-24T05:01:18.353Z,5.47
2022-10-24T05:03:45.638Z,11.55
2022-10-24T05:06:12.653Z,14.00
2022-10-24T05:08:39.649Z,9.10
2022-10-24T05:11:06.707Z,7.10
2022-10-24T05:13:36.595Z,8.35
2022-10-24T05:16:04.620Z,7.15
2022-10-24T05:18:31.982Z,7.25
2022-10-24T05:21:00.255Z,13.05
2022-10-24T05:23:27.930Z,15.85
2022-10-24T05:25:54.818Z,13.32
2022-10-24T05:28:21.666Z,12.30
2022-10-24T05:30:48.828Z,10.05
2022-10-24T05:33:15.785Z,10.77
2022-10-24T05:35:42.945Z,9.35
2022-10-24T05:38:09.944Z,8.05
2022-10-24T05:40:36.794Z,9.85
2022-10-24T05:43:04.006Z,9.38
2022-10-24T05:45:31.320Z,9.07
2022-10-24T05:47:58.353Z,9.98
2022-10-24T05:50:26.805Z,10.15
2022-10-24T05:52:54.186Z,10.35
2022-10-24T05:55:21.469Z,9.60
2022-10-24T05:57:48.606Z,11.63
2022-10-24T06:00:17.085Z,13.82
2022-10-24T06:05:16.760Z,13.30
2022-10-24T06:07:44.517Z,12.80
2022-10-24T06:10:12.447Z,14.90
2022-10-24T06:12:39.785Z,19.05
2022-10-24T06:15:08.268Z,19.77
2022-10-24T06:17:35.620Z,17.48
2022-10-24T06:20:02.545Z,15.07
2022-10-24T06:22:29.949Z,16.48
2022-10-24T06:24:57.202Z,16.38
2022-10-24T06:27:24.266Z,15.45
2022-10-24T06:29:51.140Z,15.68
2022-10-24T06:32:18.219Z,14.45
2022-10-24T06:34:45.210Z,12.75
2022-10-24T06:37:12.167Z,12.77
2022-10-24T06:39:39.032Z,11.65
2022-10-24T06:42:06.300Z,13.77
2022-10-24T06:44:33.585Z,13.07
2022-10-24T06:47:00.836Z,10.63
2022-10-24T06:49:28.222Z,10.43
2022-10-24T06:51:55.465Z,10.10
2022-10-24T06:54:24.212Z,11.10
2022-10-24T06:56:53.756Z,9.82
2022-10-24T06:59:21.127Z,9.50
2022-10-24T07:01:48.604Z,9.93
2022-10-24T07:04:16.072Z,8.90
2022-10-24T07:06:43.021Z,9.45
2022-10-24T07:09:15.145Z,9.15
2022-10-24T07:11:43.080Z,10.00
2022-10-24T07:14:11.061Z,9.20
2022-10-24T07:16:38.577Z,7.50
2022-10-24T07:19:06.247Z,8.38
2022-10-24T07:21:33.937Z,8.65
2022-10-24T07:24:01.431Z,8.73
2022-10-24T07:26:29.581Z,8.38
2022-10-24T07:31:35.052Z,8.32
2022-10-24T07:34:04.380Z,8.48
2022-10-24T07:36:31.547Z,7.95
2022-10-24T07:38:59.768Z,7.90
2022-10-24T07:41:28.972Z,7.20
2022-10-24T07:43:58.218Z,7.15
2022-10-24T07:46:26.325Z,7.35
2022-10-24T07:48:54.171Z,7.07
2022-10-24T07:51:21.733Z,7.22
2022-10-24T07:53:49.297Z,6.78
2022-10-24T07:56:18.133Z,6.25
2022-10-24T07:58:46.554Z,6.32
2022-10-24T08:01:19.778Z,5.63
2022-10-24T08:03:47.229Z,5.47
2022-10-24T08:06:17.824Z,6.13
2022-10-24T08:08:45.177Z,5.95
2022-10-24T08:11:17.838Z,7.10
2022-10-24T08:13:45.157Z,5.90
2022-10-24T08:16:14.115Z,6.53
2022-10-24T08:18:41.281Z,5.82
2022-10-24T08:21:11.336Z,6.10
2022-10-24T08:23:41.978Z,6.63
2022-10-24T08:26:10.385Z,5.43
2022-10-24T08:28:37.412Z,6.47
2022-10-24T08:31:07.061Z,6.93
2022-10-24T08:33:34.802Z,6.88
2022-10-24T08:36:04.338Z,8.38
2022-10-24T08:38:31.694Z,4.38
2022-10-24T08:40:59.280Z,3.85
2022-10-24T08:43:26.893Z,3.90
2022-10-24T08:45:54.194Z,4.18
2022-10-24T08:48:27.333Z,4.47
2022-10-24T08:50:56.047Z,4.38
2022-10-24T08:53:25.718Z,4.50
2022-10-24T08:55:54.151Z,3.83
2022-10-24T08:58:26.731Z,4.72
2022-10-24T09:00:57.208Z,4.03
2022-10-24T09:03:50.766Z,3.58
2022-10-24T09:06:18.614Z,3.38
2022-10-24T09:09:01.197Z,3.55
2022-10-24T09:11:46.915Z,4.05
2022-10-24T09:14:15.538Z,4.45
2022-10-24T09:16:43.853Z,3.80
2022-10-24T09:19:15.664Z,4.68
2022-10-24T09:21:44.115Z,5.82
2022-10-24T09:24:19.360Z,5.15
2022-10-24T09:26:46.911Z,6.95
2022-10-24T09:29:14.187Z,6.72
2022-10-24T09:31:41.607Z,7.72
2022-10-24T09:34:10.662Z,8.02
2022-10-24T09:36:40.175Z,7.10
2022-10-24T09:39:24.630Z,6.32
2022-10-24T09:41:51.940Z,6.05
2022-10-24T09:44:31.235Z,6.60
2022-10-24T09:46:58.627Z,7.20
2022-10-24T09:49:31.819Z,5.30
2022-10-24T09:52:08.342Z,5.97
2022-10-24T09:54:36.603Z,5.03
2022-10-24T09:57:03.913Z,5.50
2022-10-24T09:59:34.113Z,5.07
2022-10-24T10:02:19.552Z,4.85
2022-10-24T10:04:48.665Z,6.07
2022-10-24T10:07:18.097Z,5.10
2022-10-24T10:09:56.486Z,6.28
2022-10-24T10:12:30.373Z,6.30
2022-10-24T10:14:58.037Z,6.82
2022-10-24T10:17:27.575Z,6.95
2022-10-24T10:19:55.672Z,6.53
2022-10-24T10:22:22.908Z,7.55
2022-10-24T10:24:50.207Z,7.88
2022-10-24T10:27:36.118Z,6.20
2022-10-24T10:30:22.365Z,6.40
2022-10-24T10:33:06.692Z,5.75
2022-10-24T10:35:45.962Z,5.25
2022-10-24T10:38:37.921Z,5.20
2022-10-24T10:41:16.580Z,5.10
2022-10-24T10:43:53.497Z,5.60
2022-10-24T10:46:28.350Z,5.50
2022-10-24T10:49:04.508Z,4.85
2022-10-24T10:51:31.772Z,5.13
2022-10-24T10:53:59.007Z,3.70
2022-10-24T10:56:32.565Z,5.65
2022-10-24T10:59:08.820Z,6.40
2022-10-24T11:01:51.461Z,3.97
2022-10-24T11:04:21.803Z,2.92
2022-10-24T11:07:05.922Z,3.53
2022-10-24T11:09:43.838Z,3.70
2022-10-24T11:12:13.917Z,3.58
2022-10-24T11:14:43.881Z,3.70
2022-10-24T11:19:41.705Z,3.60
2022-10-24T11:22:14.960Z,3.15
2022-10-24T11:24:46.121Z,3.53
2022-10-24T11:27:31.984Z,3.60
2022-10-24T11:30:06.897Z,2.65
2022-10-24T11:32:40.314Z,3.50
2022-10-24T11:35:22.978Z,2.80
2022-10-24T11:37:51.848Z,2.30
2022-10-24T11:40:23.435Z,2.50
2022-10-24T11:42:50.995Z,1.98
2022-10-24T11:45:22.515Z,2.33
2022-10-24T11:48:02.341Z,2.85
2022-10-24T11:53:00.827Z,2.40
2022-10-24T11:55:37.328Z,3.17
2022-10-24T11:58:05.989Z,2.78
2022-10-24T12:00:37.707Z,2.67
2022-10-24T12:03:10.779Z,2.90
2022-10-24T12:05:56.835Z,3.70
2022-10-24T12:08:42.162Z,3.38
2022-10-24T12:11:28.154Z,2.22
2022-10-24T12:14:05.026Z,2.78
2022-10-24T12:16:43.201Z,3.20
2022-10-24T12:19:16.099Z,2.90
2022-10-24T12:21:49.017Z,2.75
2022-10-24T12:24:33.239Z,2.83
2022-10-24T12:27:02.826Z,2.85
2022-10-24T12:29:33.645Z,3.80
2022-10-24T12:32:20.851Z,2.72
2022-10-24T12:35:12.173Z,2.83
2022-10-24T12:37:46.928Z,2.35
2022-10-24T12:40:33.030Z,3.67
2022-10-24T12:43:00.282Z,3.13
2022-10-24T12:45:32.096Z,2.65
2022-10-24T12:47:59.349Z,3.38
2022-10-24T12:50:27.620Z,2.35
2022-10-24T12:52:54.876Z,3.03
2022-10-24T12:55:33.474Z,3.10
2022-10-24T12:58:23.459Z,3.13
2022-10-24T13:00:55.197Z,3.80
2022-10-24T13:03:45.523Z,2.75
2022-10-24T13:06:26.032Z,2.85
2022-10-24T13:09:22.728Z,2.58
2022-10-24T13:11:54.034Z,2.78
2022-10-24T13:14:39.855Z,2.80
2022-10-24T13:17:07.110Z,2.22
2022-10-24T13:19:34.497Z,2.53
2022-10-24T13:22:02.326Z,2.65
2022-10-24T13:24:29.637Z,2.35
2022-10-24T13:26:56.920Z,3.03
2022-10-24T13:29:24.148Z,3.50
2022-10-24T13:31:52.340Z,4.10
2022-10-24T13:34:22.731Z,4.57
2022-10-24T13:36:58.541Z,5.22
2022-10-24T13:39:28.239Z,4.63
2022-10-24T13:42:00.748Z,4.20
2022-10-24T13:44:27.984Z,3.60
2022-10-24T13:47:03.321Z,4.03
2022-10-24T13:49:37.280Z,4.43
2022-10-24T13:52:09.490Z,3.90
2022-10-24T13:54:38.239Z,3.95
2022-10-24T13:57:22.602Z,3.90
2022-10-24T13:59:55.040Z,3.80
2022-10-24T14:02:26.138Z,3.83
2022-10-24T14:04:57.475Z,8.82
2022-10-24T14:07:30.058Z,6.90
2022-10-24T14:10:11.746Z,3.47
2022-10-24T14:12:40.252Z,3.58
2022-10-24T14:15:16.105Z,3.25
2022-10-24T14:17:53.743Z,3.30
2022-10-24T14:20:25.489Z,3.47
2022-10-24T14:22:52.930Z,3.60
2022-10-24T14:25:24.167Z,3.17
2022-10-24T14:27:52.637Z,3.33
2022-10-24T14:30:22.033Z,4.10
2022-10-24T14:32:49.272Z,3.50
2022-10-24T14:35:17.041Z,4.80
2022-10-24T14:37:44.991Z,5.47
2022-10-24T14:40:17.031Z,6.10
2022-10-24T14:42:45.975Z,5.32
2022-10-24T14:45:23.684Z,4.82
2022-10-24T14:47:52.634Z,6.07
2022-10-24T14:50:36.708Z,6.28
2022-10-24T14:53:04.632Z,7.57
2022-10-24T14:55:32.315Z,8.25
2022-10-24T14:57:59.743Z,6.45
2022-10-24T15:00:28.245Z,6.68
2022-10-24T15:02:57.756Z,6.03
2022-10-24T15:05:24.981Z,5.78
2022-10-24T15:10:48.318Z,6.43
2022-10-24T15:13:17.275Z,7.30
2022-10-24T15:15:44.487Z,6.40
2022-10-24T15:18:31.436Z,6.75
2022-10-24T15:21:11.096Z,7.40
2022-10-24T15:23:45.930Z,7.47
2022-10-24T15:26:18.948Z,6.75
2022-10-24T15:28:46.316Z,7.20
2022-10-24T15:31:18.133Z,6.85
2022-10-24T15:33:46.561Z,7.20
2022-10-24T15:36:24.333Z,8.00
2022-10-24T15:38:56.040Z,8.00
2022-10-24T15:41:23.517Z,7.28
2022-10-24T15:43:50.836Z,7.95
2022-10-24T15:46:20.095Z,8.77
2022-10-24T15:48:48.844Z,8.43
2022-10-24T15:51:17.240Z,7.57
2022-10-24T15:53:47.308Z,7.57
2022-10-24T15:56:14.787Z,7.20
2022-10-24T15:58:42.251Z,8.20
2022-10-24T16:01:19.443Z,7.65
2022-10-24T16:03:49.859Z,10.13
2022-10-24T16:06:17.170Z,9.48
2022-10-24T16:08:44.437Z,7.38
2022-10-24T16:11:12.720Z,6.50
2022-10-24T16:13:40.042Z,6.15
2022-10-24T16:16:07.559Z,6.50
2022-10-24T16:18:36.278Z,6.40
2022-10-24T16:21:05.106Z,6.53
2022-10-24T16:23:32.893Z,6.22
2022-10-24T16:26:00.251Z,7.68
2022-10-24T16:28:28.941Z,8.05
2022-10-24T16:30:56.250Z,10.00
2022-10-24T16:33:23.618Z,9.93
2022-10-24T16:35:51.829Z,9.25
2022-10-24T16:38:19.432Z,8.70
2022-10-24T16:40:48.437Z,9.38
2022-10-24T16:43:17.869Z,10.13
2022-10-24T16:45:47.169Z,9.20
2022-10-24T16:48:14.746Z,10.20
2022-10-24T16:50:46.485Z,9.05
2022-10-24T16:53:15.562Z,8.15
2022-10-24T16:55:46.896Z,7.18
2022-10-24T16:58:14.183Z,6.10
2022-10-24T17:00:41.528Z,6.10
2022-10-24T17:03:08.870Z,6.63
2022-10-24T17:05:36.266Z,6.68
2022-10-24T17:08:03.620Z,6.13
2022-10-24T17:10:31.039Z,6.53
2022-10-24T17:13:00.246Z,6.03
2022-10-24T17:15:27.562Z,6.10
2022-10-24T17:17:54.893Z,7.22
2022-10-24T17:20:22.261Z,7.78
2022-10-24T17:22:50.328Z,8.18
2022-10-24T17:25:19.979Z,8.23
2022-10-24T17:27:48.578Z,8.35
2022-10-24T17:30:18.514Z,9.35
2022-10-24T17:32:47.449Z,9.32
2022-10-24T17:35:16.252Z,7.65
2022-10-24T17:37:43.475Z,7.63
2022-10-24T17:40:15.131Z,8.13
2022-10-24T17:42:43.353Z,8.48
2022-10-24T17:45:14.913Z,7.40
2022-10-24T17:47:42.321Z,6.95
2022-10-24T17:50:10.378Z,7.40
2022-10-24T17:52:40.279Z,6.90
2022-10-24T17:57:38.549Z,6.55
2022-10-24T18:00:06.107Z,6.03
2022-10-24T18:02:34.279Z,6.13
2022-10-24T18:05:01.546Z,5.45
2022-10-24T18:07:28.786Z,5.80
2022-10-24T18:10:00.433Z,5.63
2022-10-24T18:12:27.696Z,6.15
2022-10-24T18:14:57.167Z,5.00
2022-10-24T18:17:24.666Z,5.25
2022-10-24T18:19:51.969Z,5.60
2022-10-24T18:22:19.261Z,4.95
2022-10-24T18:24:46.824Z,5.57
2022-10-24T18:27:14.117Z,5.20
2022-10-24T18:32:15.080Z,5.55
2022-10-24T18:34:42.823Z,4.90
2022-10-24T18:37:10.991Z,5.28
2022-10-24T18:39:38.333Z,5.05
2022-10-24T18:42:31.696Z,5.22
2022-10-24T18:44:59.187Z,4.88
2022-10-24T18:47:26.787Z,5.20
2022-10-24T18:49:54.600Z,5.80
2022-10-24T18:52:41.970Z,5.15
2022-10-24T18:55:20.325Z,5.13
2022-10-24T18:57:48.955Z,4.97
2022-10-24T19:00:19.439Z,4.53
2022-10-24T19:02:54.520Z,4.90
2022-10-24T19:05:39.951Z,4.57
2022-10-24T19:08:12.346Z,4.90
2022-10-24T19:10:39.672Z,4.55
2022-10-24T19:13:09.586Z,5.05
2022-10-24T19:18:06.030Z,5.45
2022-10-24T19:20:35.710Z,5.00
2022-10-24T19:23:06.114Z,4.22
2022-10-24T19:25:35.080Z,5.15
2022-10-24T19:28:02.357Z,5.25
2022-10-24T19:30:29.618Z,5.00
2022-10-24T19:32:57.068Z,4.82
2022-10-24T19:35:25.147Z,5.60
2022-10-24T19:37:52.453Z,4.78
2022-10-24T19:40:19.789Z,4.63
2022-10-24T19:42:47.138Z,4.65
2022-10-24T19:45:14.480Z,4.78
2022-10-24T19:47:41.818Z,5.05
2022-10-24T19:50:09.298Z,3.90
2022-10-24T19:52:36.587Z,4.40
2022-10-24T19:55:03.990Z,4.32
2022-10-24T19:57:31.298Z,4.22
2022-10-24T19:59:58.584Z,4.60
2022-10-24T20:02:28.009Z,4.70
2022-10-24T20:04:55.261Z,5.10
2022-10-24T20:07:22.556Z,6.03
2022-10-24T20:09:50.931Z,5.45
2022-10-24T20:12:18.219Z,5.25
2022-10-24T20:14:45.488Z,4.57
2022-10-24T20:17:12.788Z,5.43
2022-10-24T20:19:40.082Z,4.63
2022-10-24T20:22:07.412Z,4.15
2022-10-24T20:24:34.777Z,4.35
2022-10-24T20:27:02.549Z,4.15
2022-10-24T20:29:29.863Z,4.65
2022-10-24T20:31:57.175Z,4.20
2022-10-24T20:34:24.444Z,3.40
2022-10-24T20:36:51.744Z,3.70
2022-10-24T20:39:21.204Z,3.60
2022-10-24T20:41:51.765Z,4.75
2022-10-24T20:44:22.499Z,4.40
2022-10-24T20:46:49.738Z,4.93
2022-10-24T20:49:17.028Z,4.47
2022-10-24T20:51:44.309Z,4.45
2022-10-24T20:54:11.717Z,4.00
2022-10-24T20:56:42.384Z,4.10
2022-10-24T20:59:10.334Z,4.18
2022-10-24T21:01:37.662Z,3.05
2022-10-24T21:04:05.089Z,3.28
2022-10-24T21:06:33.659Z,3.92
2022-10-24T21:11:35.225Z,3.92
2022-10-24T21:14:02.493Z,3.80
2022-10-24T21:16:30.164Z,3.63
2022-10-24T21:18:58.186Z,3.97
2022-10-24T21:21:26.178Z,4.50
2022-10-24T21:23:54.174Z,4.53
2022-10-24T21:26:21.545Z,3.83
2022-10-24T21:28:49.240Z,3.30
2022-10-24T21:31:20.569Z,3.60
2022-10-24T21:33:47.881Z,3.65
2022-10-24T21:36:16.717Z,3.60
2022-10-24T21:38:46.989Z,3.67
2022-10-24T21:41:14.251Z,3.65
2022-10-24T21:43:42.719Z,3.58
2022-10-24T21:46:10.008Z,3.58
2022-10-24T21:48:37.622Z,3.45
2022-10-24T21:51:07.100Z,3.83
2022-10-24T21:53:45.015Z,3.47
2022-10-24T21:56:13.630Z,3.53
2022-10-24T21:58:41.008Z,3.35
2022-10-24T22:01:15.390Z,3.33
2022-10-24T22:03:43.073Z,3.60
2022-10-24T22:06:12.311Z,3.20
2022-10-24T22:08:39.866Z,2.90
2022-10-24T22:11:08.550Z,4.32
2022-10-24T22:13:36.362Z,4.20
2022-10-24T22:16:03.802Z,4.75
2022-10-24T22:18:31.822Z,3.92
2022-10-24T22:20:59.492Z,3.65
2022-10-24T22:23:27.219Z,3.90
2022-10-24T22:25:54.591Z,4.53
2022-10-24T22:28:22.074Z,3.35
2022-10-24T22:30:49.422Z,3.70
2022-10-24T22:33:48.911Z,3.63
2022-10-24T22:36:22.127Z,3.65
2022-10-24T22:38:52.491Z,3.47
2022-10-24T22:41:20.280Z,3.47
2022-10-24T22:43:47.688Z,3.60
2022-10-24T22:46:30.000Z,3.53
2022-10-24T22:49:00.077Z,3.28
2022-10-24T22:51:27.556Z,3.38
2022-10-24T22:53:55.000Z,2.85
2022-10-24T22:56:33.487Z,3.22
2022-10-24T22:59:01.706Z,3.30
2022-10-24T23:01:47.946Z,3.13
2022-10-24T23:04:30.424Z,4.18
2022-10-24T23:07:16.554Z,3.92
2022-10-24T23:09:43.864Z,3.25
2022-10-24T23:12:13.631Z,3.15
2022-10-24T23:14:41.067Z,4.60
2022-10-24T23:17:08.460Z,3.63
2022-10-24T23:19:40.508Z,3.72
2022-10-24T23:22:28.129Z,3.35
2022-10-24T23:25:00.966Z,3.40
2022-10-24T23:27:33.307Z,3.08
2022-10-24T23:30:01.454Z,4.13
2022-10-24T23:32:30.275Z,3.90
2022-10-24T23:35:34.690Z,3.40
2022-10-24T23:38:02.123Z,3.40
2022-10-24T23:40:36.964Z,3.50
2022-10-24T23:43:04.804Z,3.50
2022-10-24T23:45:48.910Z,3.60
2022-10-24T23:48:16.150Z,3.38
2022-10-24T23:51:02.118Z,4.00
2022-10-24T23:53:51.434Z,4.63
2022-10-24T23:56:19.710Z,4.25
2022-10-24T23:58:48.422Z,3.53
